Main page
METAR-TAF:

METAR-TAF

Airports :

Bergerac Dordogne Périgord Airport

Bergerac, France

latitude: 44-49N, longitude: 000-31E, elevation: 51 m

Current weather observation

The report was made 32 minutes ago, at 20:30 UTC
Wind 5 kt from the North/Northeast
Temperature 1°C
Humidity 69%
Pressure 1034 hPa
Visibility 10 km or more
no clouds below 1500 m and no cumulonimbus

METAR: LFBE 212030Z AUTO 03005KT CAVOK 01/M04 Q1034 NOSIG

Time: 22:02 (21:02 UTC)

Forecast

The report was made 4 hours and 2 minutes ago, at 17:00 UTC
Forecast valid from 21 at 18 UTC to 22 at 18 UTC
Wind 7 kt from the North/Northeast
Visibility 10 km or more
no clouds below 1500 m and no cumulonimbus
Becoming
from 21 at 22 UTC to 21 at 24 UTC
Wind 3 kt from variable directions
Probability 40%
from 22 at 03 UTC to 22 at 08 UTC
Visibility: 3000 m
mist

TAF: LFBE 211700Z 2118/2218 03007KT CAVOK BECMG 2122/2124 VRB03KT PROB40 2203/2208 3000 BR NSC

Weather observations and forecasts of more than 4000 airports (METAR and TAF reports).

The available stations are represented by yellow and red dots on the map.

Hover mouse over dot to see the name of the station.

Then click to see weather observations and forecasts.

To change the map : click on the green buttons with a black cross to zoom in, on the green button with a dash to zoom out, or on the green arrows for adjacent maps.


METAR-TAF: